Terminal Aerodrome Forecast
Issued by NWS

Home | Current Version | Previous Version | Text Only | Print | Product List | Glossary On
Versions: 1 2 3 4 5 6 7 8 9 10 11 12 13 14 15 16 17 18 19
895
FTUS44 KMAF 241120
TAFFST
TAF
KFST 241120Z 2412/2512 17007KT P6SM SCT100 BKN200
     FM241400 06014G20KT P6SM BKN040
     FM250600 06009KT P6SM OVC015=

USA.gov is the U.S. government's official web portal to all federal, state and local government web resources and services.